Terminal Aerodrome Forecast
Issued by NWS

Current Version | Previous Version | Text Only | Print | Product List | Glossary On
Versions: 1 2 3 4 5 6 7 8 9 10 11 12
000
FTUS43 KGRB 261700
TAFCWA
TAF
KCWA 261727Z 2618/2718 01008G16KT P6SM SKC
     FM270100 36005KT P6SM SKC
     FM271600 36008G14KT P6SM SKC=

USA.gov is the U.S. government's official web portal to all federal, state and local government web resources and services.